Jason Belcher — WDC2455 — position and weather

sailwx.info

Track history (hours):
 
Tides and Currents Weather Stations Pressure Air Temp Water Temp Dewpoint Dewpoint Depression Visibility Wind Speed Wind Dir Waves Ship Positions

Jason Belcher

Owner: Florida Marine, LLC, Mandeville, LA. More information available from US FCC via Universal Licensing System and Coast Guard Vessel Documentation Center.

Last reported at 2018-Jun-24 01:59 UTC. Time now 2018-Jul-19 23:16 UTC.
Position N 31°60' W 091°05'.
Warning: this ship's position is 25 days out of date.

Length 38 m; draft 3 m.

Type: Towing. MMSI: 366993430.

Date/timePositionNaut miles runAvg speedWind from/ knotsBaromVisibWave heightAir tempDewpointWater temp
2018-Jun-24 01:59N 31°60' W 091°05'6 6.9
2018-Jun-24 01:05N 32°06' W 091°06'1 8.3
2018-Jun-24 01:00N 32°07' W 091°06'3 5.8
2018-Jun-24 00:31N 32°07' W 091°03'3 6.4
2018-Jun-24 00:00N 32°09' W 091°00'4 8.3
2018-Jun-23 23:30N 32°14' W 090°59'4 8.1
2018-Jun-23 23:01N 32°17' W 090°57'4 7.5
2018-Jun-23 22:31N 32°20' W 090°54'4 7.8
2018-Jun-23 22:01N 32°21' W 090°59'3 6.0
2018-Jun-23 21:31N 32°24' W 090°59'4 7.5
2018-Jun-23 21:01N 32°26' W 091°03'4 8.2
2018-Jun-23 20:31N 32°29' W 091°07'4 8.2
2018-Jun-23 19:57N 32°33' W 091°06'4 8.1
2018-Jun-23 19:31N 32°36' W 091°09'  
Track history (hours):
 
Tides and Currents Weather Stations Pressure Air Temp Water Temp Dewpoint Dewpoint Depression Visibility Wind Speed Wind Dir Waves Ship Positions

Jason Belcher

Owner: Florida Marine, LLC, Mandeville, LA. More information available from US FCC via Universal Licensing System and Coast Guard Vessel Documentation Center.

Last reported at 2018-Jun-24 01:59 UTC. Time now 2018-Jul-19 23:16 UTC.
Position N 31°60' W 091°05'.
Warning: this ship's position is 25 days out of date.

Length 38 m; draft 3 m.

Type: Towing. MMSI: 366993430.

Date/timePositionNaut miles runAvg speedWind from/ knotsBaromVisibWave heightAir tempDewpointWater temp
2018-Jun-24 01:59N 31°60' W 091°05'6 6.9
2018-Jun-24 01:05N 32°06' W 091°06'1 8.3
2018-Jun-24 01:00N 32°07' W 091°06'3 5.8
2018-Jun-24 00:31N 32°07' W 091°03'3 6.4
2018-Jun-24 00:00N 32°09' W 091°00'4 8.3
2018-Jun-23 23:30N 32°14' W 090°59'4 8.1
2018-Jun-23 23:01N 32°17' W 090°57'4 7.5
2018-Jun-23 22:31N 32°20' W 090°54'4 7.8
2018-Jun-23 22:01N 32°21' W 090°59'3 6.0
2018-Jun-23 21:31N 32°24' W 090°59'4 7.5
2018-Jun-23 21:01N 32°26' W 091°03'4 8.2
2018-Jun-23 20:31N 32°29' W 091°07'4 8.2
2018-Jun-23 19:57N 32°33' W 091°06'4 8.1
2018-Jun-23 19:31N 32°36' W 091°09'  

Dump ship's entire track history